Terminal Aerodrome Forecast
Issued by NWS Central Illinois

Home | Current Version | Previous Version | Text Only | Print | Product List | Glossary On
Versions: 1 2 3 4 5 6 7 8 9 10 11 12 13 14
000
FTUS43 KILX 031145
TAFSPI
TAF
KSPI 031145Z 0312/0412 02004KT P6SM VCSH SCT120
     FM031500 03007KT P6SM SCT035
     FM031900 04007KT P6SM BKN045
     FM040100 03005KT P6SM SCT100
     FM040900 VRB03KT 3SM BR FEW015=

USA.gov is the U.S. government's official web portal to all federal, state and local government web resources and services.